sensor_id;sensor_type;location;lat;lon;timestamp;pressure;altitude;pressure_sealevel;temperature;humidity
74065;BME280;62421;51.412;5.432;2023-08-01T00:01:01;99777.19;;;15.72;100.00
74065;BME280;62421;51.412;5.432;2023-08-01T00:03:27;99793.25;;;15.73;100.00
74065;BME280;62421;51.412;5.432;2023-08-01T00:05:52;99787.00;;;15.73;100.00
74065;BME280;62421;51.412;5.432;2023-08-01T00:08:19;99785.28;;;15.72;100.00
74065;BME280;62421;51.412;5.432;2023-08-01T00:10:45;99788.88;;;15.72;100.00
74065;BME280;62421;51.412;5.432;2023-08-01T00:13:10;99773.06;;;15.68;100.00
74065;BME280;62421;51.412;5.432;2023-08-01T00:15:36;99773.41;;;15.65;100.00
74065;BME280;62421;51.412;5.432;2023-08-01T00:18:01;99783.72;;;15.61;100.00
74065;BME280;62421;51.412;5.432;2023-08-01T00:20:27;99787.59;;;15.59;100.00
74065;BME280;62421;51.412;5.432;2023-08-01T00:22:52;99778.13;;;15.54;100.00
74065;BME280;62421;51.412;5.432;2023-08-01T00:25:18;99785.41;;;15.54;100.00
74065;BME280;62421;51.412;5.432;2023-08-01T00:27:43;99775.75;;;15.51;100.00
74065;BME280;62421;51.412;5.432;2023-08-01T00:30:09;99775.41;;;15.46;100.00
74065;BME280;62421;51.412;5.432;2023-08-01T00:32:35;99776.09;;;15.40;100.00
74065;BME280;62421;51.412;5.432;2023-08-01T00:35:01;99772.00;;;15.36;100.00
74065;BME280;62421;51.412;5.432;2023-08-01T00:37:26;99770.44;;;15.33;100.00
74065;BME280;62421;51.412;5.432;2023-08-01T00:39:51;99768.94;;;15.31;100.00
74065;BME280;62421;51.412;5.432;2023-08-01T00:42:17;99769.28;;;15.28;100.00
74065;BME280;62421;51.412;5.432;2023-08-01T00:44:42;99769.94;;;15.22;100.00
74065;BME280;62421;51.412;5.432;2023-08-01T00:47:08;99765.16;;;15.15;100.00
74065;BME280;62421;51.412;5.432;2023-08-01T00:49:34;99769.19;;;15.11;100.00
74065;BME280;62421;51.412;5.432;2023-08-01T00:52:00;99775.78;;;15.09;100.00
74065;BME280;62421;51.412;5.432;2023-08-01T00:54:25;99771.59;;;15.14;100.00
74065;BME280;62421;51.412;5.432;2023-08-01T00:56:51;99771.41;;;15.16;100.00
74065;BME280;62421;51.412;5.432;2023-08-01T00:59:17;99772.44;;;15.15;100.00
74065;BME280;62421;51.412;5.432;2023-08-01T01:01:42;99763.94;;;15.10;100.00
74065;BME280;62421;51.412;5.432;2023-08-01T01:04:08;99763.75;;;15.03;100.00
74065;BME280;62421;51.412;5.432;2023-08-01T01:07:12;99768.13;;;14.96;100.00
74065;BME280;62421;51.412;5.432;2023-08-01T01:09:38;99748.19;;;14.89;100.00
74065;BME280;62421;51.412;5.432;2023-08-01T01:12:03;99754.06;;;14.84;100.00
74065;BME280;62421;51.412;5.432;2023-08-01T01:14:29;99750.63;;;14.74;100.00
74065;BME280;62421;51.412;5.432;2023-08-01T01:16:55;99755.50;;;14.70;100.00
74065;BME280;62421;51.412;5.432;2023-08-01T01:19:20;99754.31;;;14.65;100.00
74065;BME280;62421;51.412;5.432;2023-08-01T01:21:47;99752.25;;;14.59;100.00
74065;BME280;62421;51.412;5.432;2023-08-01T01:24:13;99764.34;;;14.54;100.00
74065;BME280;62421;51.412;5.432;2023-08-01T01:26:41;99754.72;;;14.52;100.00
74065;BME280;62421;51.412;5.432;2023-08-01T01:29:07;99776.75;;;14.47;100.00
74065;BME280;62421;51.412;5.432;2023-08-01T01:31:36;99761.91;;;14.43;100.00
74065;BME280;62421;51.412;5.432;2023-08-01T01:34:01;99757.66;;;14.41;100.00
74065;BME280;62421;51.412;5.432;2023-08-01T01:36:27;99759.31;;;14.33;100.00
74065;BME280;62421;51.412;5.432;2023-08-01T01:38:52;99749.50;;;14.32;100.00
74065;BME280;62421;51.412;5.432;2023-08-01T01:41:18;99758.59;;;14.31;100.00
74065;BME280;62421;51.412;5.432;2023-08-01T01:43:43;99753.91;;;14.33;100.00
74065;BME280;62421;51.412;5.432;2023-08-01T01:46:09;99764.56;;;14.35;100.00
74065;BME280;62421;51.412;5.432;2023-08-01T01:48:35;99764.22;;;14.38;100.00
74065;BME280;62421;51.412;5.432;2023-08-01T01:51:00;99755.81;;;14.41;100.00
74065;BME280;62421;51.412;5.432;2023-08-01T01:53:25;99756.81;;;14.40;100.00
74065;BME280;62421;51.412;5.432;2023-08-01T01:55:51;99748.56;;;14.42;100.00
74065;BME280;62421;51.412;5.432;2023-08-01T01:58:16;99760.34;;;14.41;100.00
74065;BME280;62421;51.412;5.432;2023-08-01T02:00:41;99755.28;;;14.38;100.00
74065;BME280;62421;51.412;5.432;2023-08-01T02:03:07;99754.03;;;14.32;100.00
74065;BME280;62421;51.412;5.432;2023-08-01T02:05:41;99754.53;;;14.27;100.00
74065;BME280;62421;51.412;5.432;2023-08-01T02:08:07;99760.88;;;14.18;100.00
74065;BME280;62421;51.412;5.432;2023-08-01T02:10:32;99756.09;;;14.12;100.00
74065;BME280;62421;51.412;5.432;2023-08-01T02:12:57;99759.44;;;14.06;100.00
74065;BME280;62421;51.412;5.432;2023-08-01T02:15:23;99753.47;;;14.02;100.00
74065;BME280;62421;51.412;5.432;2023-08-01T02:17:49;99748.25;;;14.01;100.00
74065;BME280;62421;51.412;5.432;2023-08-01T02:20:14;99749.25;;;14.00;100.00
74065;BME280;62421;51.412;5.432;2023-08-01T02:22:39;99752.41;;;13.95;100.00
74065;BME280;62421;51.412;5.432;2023-08-01T02:25:05;99757.13;;;13.93;100.00
74065;BME280;62421;51.412;5.432;2023-08-01T02:27:30;99760.66;;;13.93;100.00
74065;BME280;62421;51.412;5.432;2023-08-01T02:29:56;99761.69;;;13.92;100.00
74065;BME280;62421;51.412;5.432;2023-08-01T02:32:21;99760.50;;;13.95;100.00
74065;BME280;62421;51.412;5.432;2023-08-01T02:34:47;99761.22;;;13.97;100.00
74065;BME280;62421;51.412;5.432;2023-08-01T02:37:13;99773.88;;;13.97;100.00
74065;BME280;62421;51.412;5.432;2023-08-01T02:39:38;99779.13;;;13.98;100.00
74065;BME280;62421;51.412;5.432;2023-08-01T02:42:03;99772.84;;;13.98;100.00
74065;BME280;62421;51.412;5.432;2023-08-01T02:44:29;99776.41;;;13.98;100.00
74065;BME280;62421;51.412;5.432;2023-08-01T02:46:54;99774.22;;;14.02;100.00
74065;BME280;62421;51.412;5.432;2023-08-01T02:49:19;99787.25;;;14.06;100.00
74065;BME280;62421;51.412;5.432;2023-08-01T02:51:45;99786.56;;;14.04;100.00
74065;BME280;62421;51.412;5.432;2023-08-01T02:54:10;99777.63;;;14.04;100.00
74065;BME280;62421;51.412;5.432;2023-08-01T02:56:35;99786.56;;;14.04;100.00
74065;BME280;62421;51.412;5.432;2023-08-01T02:59:09;99791.66;;;14.07;100.00
74065;BME280;62421;51.412;5.432;2023-08-01T03:01:35;99786.97;;;14.09;100.00
74065;BME280;62421;51.412;5.432;2023-08-01T03:04:05;99783.94;;;14.12;100.00
74065;BME280;62421;51.412;5.432;2023-08-01T03:06:33;99786.34;;;14.16;100.00
74065;BME280;62421;51.412;5.432;2023-08-01T03:08:59;99781.78;;;14.16;100.00
74065;BME280;62421;51.412;5.432;2023-08-01T03:11:24;99784.00;;;14.21;100.00
74065;BME280;62421;51.412;5.432;2023-08-01T03:13:50;99785.69;;;14.22;100.00
74065;BME280;62421;51.412;5.432;2023-08-01T03:16:16;99780.97;;;14.24;100.00
74065;BME280;62421;51.412;5.432;2023-08-01T03:18:42;99780.00;;;14.25;100.00
74065;BME280;62421;51.412;5.432;2023-08-01T03:21:08;99773.75;;;14.24;100.00
74065;BME280;62421;51.412;5.432;2023-08-01T03:23:33;99784.56;;;14.24;100.00
74065;BME280;62421;51.412;5.432;2023-08-01T03:25:59;99771.91;;;14.25;100.00
74065;BME280;62421;51.412;5.432;2023-08-01T03:28:26;99776.47;;;14.24;100.00
74065;BME280;62421;51.412;5.432;2023-08-01T03:30:51;99773.75;;;14.24;100.00
74065;BME280;62421;51.412;5.432;2023-08-01T03:33:19;99772.75;;;14.25;100.00
74065;BME280;62421;51.412;5.432;2023-08-01T03:35:44;99781.69;;;14.26;100.00
74065;BME280;62421;51.412;5.432;2023-08-01T03:38:09;99783.53;;;14.25;100.00
74065;BME280;62421;51.412;5.432;2023-08-01T03:40:35;99781.84;;;14.24;100.00
74065;BME280;62421;51.412;5.432;2023-08-01T03:43:00;99791.63;;;14.25;100.00
74065;BME280;62421;51.412;5.432;2023-08-01T03:45:25;99785.41;;;14.25;100.00
74065;BME280;62421;51.412;5.432;2023-08-01T03:47:51;99789.63;;;14.27;100.00
74065;BME280;62421;51.412;5.432;2023-08-01T03:50:16;99791.50;;;14.27;100.00
74065;BME280;62421;51.412;5.432;2023-08-01T03:52:42;99783.53;;;14.25;100.00
74065;BME280;62421;51.412;5.432;2023-08-01T03:55:07;99783.53;;;14.25;100.00
74065;BME280;62421;51.412;5.432;2023-08-01T03:57:33;99782.84;;;14.23;100.00
74065;BME280;62421;51.412;5.432;2023-08-01T03:59:59;99790.25;;;14.21;100.00
74065;BME280;62421;51.412;5.432;2023-08-01T04:02:25;99786.56;;;14.22;100.00
74065;BME280;62421;51.412;5.432;2023-08-01T04:04:50;99793.34;;;14.26;100.00
74065;BME280;62421;51.412;5.432;2023-08-01T04:07:15;99789.63;;;14.27;100.00
74065;BME280;62421;51.412;5.432;2023-08-01T04:09:41;99789.47;;;14.29;100.00
74065;BME280;62421;51.412;5.432;2023-08-01T04:12:06;99784.09;;;14.29;100.00
74065;BME280;62421;51.412;5.432;2023-08-01T04:14:32;99787.63;;;14.29;100.00
74065;BME280;62421;51.412;5.432;2023-08-01T04:16:59;99781.53;;;14.27;100.00
74065;BME280;62421;51.412;5.432;2023-08-01T04:19:24;99792.19;;;14.29;100.00
74065;BME280;62421;51.412;5.432;2023-08-01T04:21:50;99795.72;;;14.29;100.00
74065;BME280;62421;51.412;5.432;2023-08-01T04:24:16;99799.25;;;14.30;100.00
74065;BME280;62421;51.412;5.432;2023-08-01T04:26:41;99792.88;;;14.31;100.00
74065;BME280;62421;51.412;5.432;2023-08-01T04:29:06;99788.31;;;14.31;100.00
74065;BME280;62421;51.412;5.432;2023-08-01T04:31:32;99790.00;;;14.32;100.00
74065;BME280;62421;51.412;5.432;2023-08-01T04:33:57;99789.00;;;14.33;100.00
74065;BME280;62421;51.412;5.432;2023-08-01T04:36:22;99779.03;;;14.34;100.00
74065;BME280;62421;51.412;5.432;2023-08-01T04:38:48;99778.91;;;14.36;100.00
74065;BME280;62421;51.412;5.432;2023-08-01T04:41:13;99768.09;;;14.36;100.00
74065;BME280;62421;51.412;5.432;2023-08-01T04:43:39;99778.91;;;14.36;100.00
74065;BME280;62421;51.412;5.432;2023-08-01T04:46:04;99781.25;;;14.39;100.00
74065;BME280;62421;51.412;5.432;2023-08-01T04:48:29;99780.44;;;14.38;100.00
74065;BME280;62421;51.412;5.432;2023-08-01T04:50:55;99793.09;;;14.38;100.00
74065;BME280;62421;51.412;5.432;2023-08-01T04:53:20;99789.69;;;14.36;100.00
74065;BME280;62421;51.412;5.432;2023-08-01T04:55:45;99795.78;;;14.38;100.00
74065;BME280;62421;51.412;5.432;2023-08-01T04:58:11;99800.03;;;14.40;100.00
74065;BME280;62421;51.412;5.432;2023-08-01T05:00:37;99803.25;;;14.44;100.00
74065;BME280;62421;51.412;5.432;2023-08-01T05:03:02;99807.34;;;14.48;100.00
74065;BME280;62421;51.412;5.432;2023-08-01T05:05:28;99802.78;;;14.48;100.00
74065;BME280;62421;51.412;5.432;2023-08-01T05:07:53;99806.41;;;14.57;100.00
74065;BME280;62421;51.412;5.432;2023-08-01T05:10:18;99804.25;;;14.61;100.00
74065;BME280;62421;51.412;5.432;2023-08-01T05:12:44;99811.19;;;14.63;100.00
74065;BME280;62421;51.412;5.432;2023-08-01T05:15:09;99804.94;;;14.63;100.00
74065;BME280;62421;51.412;5.432;2023-08-01T05:17:34;99803.38;;;14.60;100.00
74065;BME280;62421;51.412;5.432;2023-08-01T05:20:00;99793.44;;;14.61;100.00
74065;BME280;62421;51.412;5.432;2023-08-01T05:22:25;99788.63;;;14.72;100.00
74065;BME280;62421;51.412;5.432;2023-08-01T05:24:51;99795.25;;;14.78;100.00
74065;BME280;62421;51.412;5.432;2023-08-01T05:27:16;99816.16;;;14.76;100.00
74065;BME280;62421;51.412;5.432;2023-08-01T05:29:42;99809.38;;;14.72;100.00
74065;BME280;62421;51.412;5.432;2023-08-01T05:32:08;99810.38;;;14.71;100.00
74065;BME280;62421;51.412;5.432;2023-08-01T05:34:33;99817.66;;;14.70;100.00
74065;BME280;62421;51.412;5.432;2023-08-01T05:36:58;99801.44;;;14.70;100.00
74065;BME280;62421;51.412;5.432;2023-08-01T05:39:24;99811.13;;;14.81;100.00
74065;BME280;62421;51.412;5.432;2023-08-01T05:41:49;99814.56;;;14.91;100.00
74065;BME280;62421;51.412;5.432;2023-08-01T05:44:16;99817.63;;;14.97;100.00
74065;BME280;62421;51.412;5.432;2023-08-01T05:46:41;99810.06;;;15.00;100.00
74065;BME280;62421;51.412;5.432;2023-08-01T05:49:06;99809.03;;;15.01;100.00
74065;BME280;62421;51.412;5.432;2023-08-01T05:51:32;99821.94;;;15.15;100.00
74065;BME280;62421;51.412;5.432;2023-08-01T05:53:57;99810.22;;;15.41;100.00
74065;BME280;62421;51.412;5.432;2023-08-01T05:56:22;99823.28;;;15.54;100.00
74065;BME280;62421;51.412;5.432;2023-08-01T05:58:48;99825.19;;;15.62;100.00
74065;BME280;62421;51.412;5.432;2023-08-01T06:01:13;99817.63;;;15.73;100.00
74065;BME280;62421;51.412;5.432;2023-08-01T06:03:39;99819.16;;;15.84;100.00
74065;BME280;62421;51.412;5.432;2023-08-01T06:06:04;99829.84;;;15.94;100.00
74065;BME280;62421;51.412;5.432;2023-08-01T06:08:30;99816.81;;;15.97;100.00
74065;BME280;62421;51.412;5.432;2023-08-01T06:10:55;99827.31;;;16.01;100.00
74065;BME280;62421;51.412;5.432;2023-08-01T06:13:21;99825.78;;;16.14;100.00
74065;BME280;62421;51.412;5.432;2023-08-01T06:15:47;99829.34;;;16.40;100.00
74065;BME280;62421;51.412;5.432;2023-08-01T06:18:12;99835.09;;;16.53;100.00
74065;BME280;62421;51.412;5.432;2023-08-01T06:20:38;99844.94;;;16.46;100.00
74065;BME280;62421;51.412;5.432;2023-08-01T06:23:03;99843.91;;;16.30;100.00
74065;BME280;62421;51.412;5.432;2023-08-01T06:25:29;99839.50;;;16.21;100.00
74065;BME280;62421;51.412;5.432;2023-08-01T06:27:54;99830.69;;;16.11;100.00
74065;BME280;62421;51.412;5.432;2023-08-01T06:30:19;99844.25;;;16.03;100.00
74065;BME280;62421;51.412;5.432;2023-08-01T06:32:45;99838.81;;;16.03;100.00
74065;BME280;62421;51.412;5.432;2023-08-01T06:35:10;99839.00;;;16.09;100.00
74065;BME280;62421;51.412;5.432;2023-08-01T06:37:35;99834.91;;;16.22;100.00
74065;BME280;62421;51.412;5.432;2023-08-01T06:40:01;99836.63;;;16.31;100.00
74065;BME280;62421;51.412;5.432;2023-08-01T06:42:27;99845.25;;;16.34;100.00
74065;BME280;62421;51.412;5.432;2023-08-01T06:44:52;99848.00;;;16.26;100.00
74065;BME280;62421;51.412;5.432;2023-08-01T06:47:18;99854.06;;;16.12;100.00
74065;BME280;62421;51.412;5.432;2023-08-01T06:49:43;99849.47;;;15.96;100.00
74065;BME280;62421;51.412;5.432;2023-08-01T06:52:09;99854.88;;;15.88;100.00
74065;BME280;62421;51.412;5.432;2023-08-01T06:54:34;99849.78;;;15.85;100.00
74065;BME280;62421;51.412;5.432;2023-08-01T06:57:00;99852.47;;;15.85;100.00
74065;BME280;62421;51.412;5.432;2023-08-01T06:59:26;99859.63;;;15.94;100.00
74065;BME280;62421;51.412;5.432;2023-08-01T07:01:51;99855.94;;;16.11;100.00
74065;BME280;62421;51.412;5.432;2023-08-01T07:04:16;99861.16;;;16.13;100.00
74065;BME280;62421;51.412;5.432;2023-08-01T07:06:42;99858.44;;;16.13;100.00
74065;BME280;62421;51.412;5.432;2023-08-01T07:09:07;99858.47;;;16.21;100.00
74065;BME280;62421;51.412;5.432;2023-08-01T07:11:33;99856.59;;;16.38;100.00
74065;BME280;62421;51.412;5.432;2023-08-01T07:13:58;99866.44;;;16.64;100.00
74065;BME280;62421;51.412;5.432;2023-08-01T07:16:24;99865.91;;;16.76;100.00
74065;BME280;62421;51.412;5.432;2023-08-01T07:18:49;99865.25;;;16.83;100.00
74065;BME280;62421;51.412;5.432;2023-08-01T07:21:16;99868.47;;;16.78;100.00
74065;BME280;62421;51.412;5.432;2023-08-01T07:23:42;99866.75;;;16.69;100.00
74065;BME280;62421;51.412;5.432;2023-08-01T07:26:08;99867.94;;;16.66;100.00
74065;BME280;62421;51.412;5.432;2023-08-01T07:28:33;99862.88;;;16.71;100.00
74065;BME280;62421;51.412;5.432;2023-08-01T07:31:06;99856.94;;;16.76;100.00
74065;BME280;62421;51.412;5.432;2023-08-01T07:33:33;99861.16;;;16.95;100.00
74065;BME280;62421;51.412;5.432;2023-08-01T07:35:59;99868.94;;;17.06;100.00
74065;BME280;62421;51.412;5.432;2023-08-01T07:38:24;99861.47;;;17.16;100.00
74065;BME280;62421;51.412;5.432;2023-08-01T07:40:52;99877.69;;;17.25;100.00
74065;BME280;62421;51.412;5.432;2023-08-01T07:43:18;99860.75;;;17.23;100.00
74065;BME280;62421;51.412;5.432;2023-08-01T07:45:44;99879.41;;;17.26;100.00
74065;BME280;62421;51.412;5.432;2023-08-01T07:48:09;99876.13;;;17.38;100.00
74065;BME280;62421;51.412;5.432;2023-08-01T07:50:35;99876.13;;;17.38;100.00
74065;BME280;62421;51.412;5.432;2023-08-01T07:53:00;99876.13;;;17.38;100.00
74065;BME280;62421;51.412;5.432;2023-08-01T07:55:25;99879.25;;;17.58;100.00
74065;BME280;62421;51.412;5.432;2023-08-01T07:57:51;99877.19;;;17.69;100.00
74065;BME280;62421;51.412;5.432;2023-08-01T08:00:16;99880.63;;;17.54;100.00
74065;BME280;62421;51.412;5.432;2023-08-01T08:02:44;99884.31;;;17.22;100.00
74065;BME280;62421;51.412;5.432;2023-08-01T08:05:10;99888.94;;;16.97;100.00
74065;BME280;62421;51.412;5.432;2023-08-01T08:07:36;99887.94;;;16.82;100.00
74065;BME280;62421;51.412;5.432;2023-08-01T08:10:03;99883.53;;;16.72;100.00
74065;BME280;62421;51.412;5.432;2023-08-01T08:12:28;99877.63;;;16.85;100.00
74065;BME280;62421;51.412;5.432;2023-08-01T08:14:54;99883.34;;;16.90;100.00
74065;BME280;62421;51.412;5.432;2023-08-01T08:17:19;99891.69;;;16.89;100.00
74065;BME280;62421;51.412;5.432;2023-08-01T08:19:45;99887.94;;;16.82;100.00
74065;BME280;62421;51.412;5.432;2023-08-01T08:22:10;99885.25;;;16.65;100.00
74065;BME280;62421;51.412;5.432;2023-08-01T08:24:36;99897.59;;;16.59;100.00
74065;BME280;62421;51.412;5.432;2023-08-01T08:27:01;99888.09;;;16.55;100.00
74065;BME280;62421;51.412;5.432;2023-08-01T08:29:27;99891.34;;;16.59;100.00
74065;BME280;62421;51.412;5.432;2023-08-01T08:31:52;99883.88;;;16.69;100.00
74065;BME280;62421;51.412;5.432;2023-08-01T08:34:17;99882.00;;;16.86;100.00
74065;BME280;62421;51.412;5.432;2023-08-01T08:36:43;99874.69;;;17.03;100.00
74065;BME280;62421;51.412;5.432;2023-08-01T08:39:08;99883.13;;;17.25;100.00
74065;BME280;62421;51.412;5.432;2023-08-01T08:41:38;99891.31;;;17.56;100.00
74065;BME280;62421;51.412;5.432;2023-08-01T08:44:08;99891.41;;;17.79;100.00
74065;BME280;62421;51.412;5.432;2023-08-01T08:46:40;99890.84;;;17.92;100.00
74065;BME280;62421;51.412;5.432;2023-08-01T08:49:07;99896.59;;;17.97;100.00
74065;BME280;62421;51.412;5.432;2023-08-01T08:51:32;99888.19;;;18.07;100.00
74065;BME280;62421;51.412;5.432;2023-08-01T08:53:59;99889.97;;;18.23;100.00
74065;BME280;62421;51.412;5.432;2023-08-01T08:56:26;99894.56;;;18.45;100.00
74065;BME280;62421;51.412;5.432;2023-08-01T08:58:53;99889.22;;;18.52;100.00
74065;BME280;62421;51.412;5.432;2023-08-01T09:01:19;99890.44;;;18.49;100.00
74065;BME280;62421;51.412;5.432;2023-08-01T09:03:44;99889.84;;;18.62;100.00
74065;BME280;62421;51.412;5.432;2023-08-01T09:06:32;99888.13;;;18.84;100.00
74065;BME280;62421;51.412;5.432;2023-08-01T09:09:11;99894.78;;;18.81;100.00
74065;BME280;62421;51.412;5.432;2023-08-01T09:14:10;99884.72;;;18.67;100.00
74065;BME280;62421;51.412;5.432;2023-08-01T09:16:35;99892.09;;;18.73;100.00
74065;BME280;62421;51.412;5.432;2023-08-01T09:19:01;99895.00;;;18.80;100.00
74065;BME280;62421;51.412;5.432;2023-08-01T09:21:30;99894.91;;;18.88;100.00
74065;BME280;62421;51.412;5.432;2023-08-01T09:23:58;99902.31;;;18.94;100.00
74065;BME280;62421;51.412;5.432;2023-08-01T09:26:24;99899.78;;;18.93;100.00
74065;BME280;62421;51.412;5.432;2023-08-01T09:28:58;99901.31;;;18.95;100.00
74065;BME280;62421;51.412;5.432;2023-08-01T09:31:31;99909.50;;;19.10;100.00
74065;BME280;62421;51.412;5.432;2023-08-01T09:33:59;99907.81;;;19.24;100.00
74065;BME280;62421;51.412;5.432;2023-08-01T09:36:24;99911.19;;;19.26;100.00
74065;BME280;62421;51.412;5.432;2023-08-01T09:38:51;99915.78;;;19.11;100.00
74065;BME280;62421;51.412;5.432;2023-08-01T09:41:17;99910.47;;;18.94;100.00
74065;BME280;62421;51.412;5.432;2023-08-01T09:43:45;99915.31;;;18.84;100.00
74065;BME280;62421;51.412;5.432;2023-08-01T09:46:11;99913.28;;;18.86;100.00
74065;BME280;62421;51.412;5.432;2023-08-01T09:48:37;99910.66;;;18.93;100.00
74065;BME280;62421;51.412;5.432;2023-08-01T09:51:10;99917.09;;;19.15;100.00
74065;BME280;62421;51.412;5.432;2023-08-01T09:53:47;99912.78;;;19.35;100.00
74065;BME280;62421;51.412;5.432;2023-08-01T09:56:15;99914.00;;;19.48;100.00
74065;BME280;62421;51.412;5.432;2023-08-01T09:58:43;99917.75;;;19.47;100.00
74065;BME280;62421;51.412;5.432;2023-08-01T10:01:10;99911.84;;;19.43;100.00
74065;BME280;62421;51.412;5.432;2023-08-01T10:03:36;99921.91;;;19.42;100.00
74065;BME280;62421;51.412;5.432;2023-08-01T10:06:01;99914.00;;;19.48;100.00
74065;BME280;62421;51.412;5.432;2023-08-01T10:08:29;99920.19;;;19.56;100.00
74065;BME280;62421;51.412;5.432;2023-08-01T10:10:54;99917.47;;;19.56;100.00
74065;BME280;62421;51.412;5.432;2023-08-01T10:13:23;99921.50;;;19.60;100.00
74065;BME280;62421;51.412;5.432;2023-08-01T10:15:50;99928.47;;;19.78;100.00
74065;BME280;62421;51.412;5.432;2023-08-01T10:18:16;99919.47;;;19.77;100.00
74065;BME280;62421;51.412;5.432;2023-08-01T10:20:43;99918.78;;;19.60;100.00
74065;BME280;62421;51.412;5.432;2023-08-01T10:23:09;99929.28;;;19.49;100.00
74065;BME280;62421;51.412;5.432;2023-08-01T10:25:36;99922.84;;;19.50;100.00
74065;BME280;62421;51.412;5.432;2023-08-01T10:28:04;99919.44;;;19.48;98.92
74065;BME280;62421;51.412;5.432;2023-08-01T10:30:29;99925.16;;;19.53;98.91
74065;BME280;62421;51.412;5.432;2023-08-01T10:32:56;99934.47;;;19.43;100.00
74065;BME280;62421;51.412;5.432;2023-08-01T10:35:36;99933.16;;;19.39;100.00
74065;BME280;62421;51.412;5.432;2023-08-01T10:38:09;99933.16;;;19.54;100.00
74065;BME280;62421;51.412;5.432;2023-08-01T10:40:40;99936.25;;;19.81;97.65
74065;BME280;62421;51.412;5.432;2023-08-01T10:43:18;99929.09;;;20.10;96.81
74065;BME280;62421;51.412;5.432;2023-08-01T10:45:44;99927.31;;;20.60;96.55
74065;BME280;62421;51.412;5.432;2023-08-01T10:48:10;99937.69;;;20.93;95.33
74065;BME280;62421;51.412;5.432;2023-08-01T10:50:36;99925.69;;;21.15;91.29
74065;BME280;62421;51.412;5.432;2023-08-01T10:53:07;99925.44;;;21.38;90.43
74065;BME280;62421;51.412;5.432;2023-08-01T10:55:44;99931.94;;;21.37;92.58
74065;BME280;62421;51.412;5.432;2023-08-01T10:58:10;99939.66;;;21.34;89.16
74065;BME280;62421;51.412;5.432;2023-08-01T11:00:36;99946.66;;;21.36;86.02
74065;BME280;62421;51.412;5.432;2023-08-01T11:03:01;99950.09;;;21.45;88.31
74065;BME280;62421;51.412;5.432;2023-08-01T11:05:27;99944.00;;;21.43;84.13
74065;BME280;62421;51.412;5.432;2023-08-01T11:07:59;99949.56;;;21.35;87.43
74065;BME280;62421;51.412;5.432;2023-08-01T11:10:26;99950.47;;;21.14;84.58
74065;BME280;62421;51.412;5.432;2023-08-01T11:12:52;99963.13;;;20.72;83.39
74065;BME280;62421;51.412;5.432;2023-08-01T11:15:19;99956.63;;;20.36;92.27
74065;BME280;62421;51.412;5.432;2023-08-01T11:17:49;99954.91;;;20.14;91.89
74065;BME280;62421;51.412;5.432;2023-08-01T11:20:16;99948.59;;;20.13;90.23
74065;BME280;62421;51.412;5.432;2023-08-01T11:22:53;99949.25;;;20.15;90.88
74065;BME280;62421;51.412;5.432;2023-08-01T11:25:30;99941.44;;;20.27;88.20
74065;BME280;62421;51.412;5.432;2023-08-01T11:27:56;99946.25;;;20.46;91.29
74065;BME280;62421;51.412;5.432;2023-08-01T11:30:30;99947.06;;;20.62;91.50
74065;BME280;62421;51.412;5.432;2023-08-01T11:32:55;99954.88;;;20.65;87.65
74065;BME280;62421;51.412;5.432;2023-08-01T11:35:20;99948.25;;;20.74;85.50
74065;BME280;62421;51.412;5.432;2023-08-01T11:37:46;99955.69;;;21.09;82.54
74065;BME280;62421;51.412;5.432;2023-08-01T11:40:11;99963.22;;;21.35;79.00
74065;BME280;62421;51.412;5.432;2023-08-01T11:42:38;99965.69;;;21.51;75.76
74065;BME280;62421;51.412;5.432;2023-08-01T11:45:10;99968.03;;;21.61;78.18
74065;BME280;62421;51.412;5.432;2023-08-01T11:47:36;99975.06;;;21.77;73.04
74065;BME280;62421;51.412;5.432;2023-08-01T11:50:02;99980.84;;;21.95;77.45
74065;BME280;62421;51.412;5.432;2023-08-01T11:52:29;99974.59;;;22.08;75.35
74065;BME280;62421;51.412;5.432;2023-08-01T11:54:55;99974.59;;;22.08;72.12
74065;BME280;62421;51.412;5.432;2023-08-01T11:57:23;99965.97;;;22.11;77.04
74065;BME280;62421;51.412;5.432;2023-08-01T11:59:54;99959.91;;;22.16;75.13
74065;BME280;62421;51.412;5.432;2023-08-01T12:02:27;99968.47;;;21.99;75.76
74065;BME280;62421;51.412;5.432;2023-08-01T12:04:54;99979.94;;;21.81;78.07
74065;BME280;62421;51.412;5.432;2023-08-01T12:07:20;99970.97;;;21.59;72.86
74065;BME280;62421;51.412;5.432;2023-08-01T12:09:59;99974.34;;;21.33;77.17
74065;BME280;62421;51.412;5.432;2023-08-01T12:12:28;99976.91;;;21.13;75.89
74065;BME280;62421;51.412;5.432;2023-08-01T12:14:54;99980.66;;;21.12;78.42
74065;BME280;62421;51.412;5.432;2023-08-01T12:17:20;99987.06;;;21.19;74.29
74065;BME280;62421;51.412;5.432;2023-08-01T12:19:46;99992.91;;;21.44;73.27
74065;BME280;62421;51.412;5.432;2023-08-01T12:22:12;99987.91;;;21.83;72.18
74065;BME280;62421;51.412;5.432;2023-08-01T12:24:38;99984.47;;;22.09;72.78
74065;BME280;62421;51.412;5.432;2023-08-01T12:27:12;99976.50;;;22.14;75.16
74065;BME280;62421;51.412;5.432;2023-08-01T12:29:38;99971.03;;;22.14;68.82
74065;BME280;62421;51.412;5.432;2023-08-01T12:32:03;99971.59;;;22.44;71.64
74065;BME280;62421;51.412;5.432;2023-08-01T12:34:29;99968.31;;;22.82;68.12
74065;BME280;62421;51.412;5.432;2023-08-01T12:36:54;99985.78;;;22.95;67.18
74065;BME280;62421;51.412;5.432;2023-08-01T12:39:19;99976.56;;;23.02;68.28
74065;BME280;62421;51.412;5.432;2023-08-01T12:41:45;99981.56;;;22.85;70.11
74065;BME280;62421;51.412;5.432;2023-08-01T12:44:10;99977.84;;;22.25;68.51
74065;BME280;62421;51.412;5.432;2023-08-01T12:46:36;99974.00;;;21.71;69.93
74065;BME280;62421;51.412;5.432;2023-08-01T12:49:01;99982.78;;;21.38;67.89
74065;BME280;62421;51.412;5.432;2023-08-01T12:51:27;99989.09;;;21.39;71.45